createdAt,value
2023-01-26T00:01:18.278Z,101801.13
2023-01-26T00:04:21.728Z,101796.94
2023-01-26T00:07:26.135Z,101780.59
2023-01-26T00:10:29.224Z,101784.78
2023-01-26T00:13:32.410Z,101798.63
2023-01-26T00:16:35.428Z,101797.00
2023-01-26T00:19:38.415Z,101785.00
2023-01-26T00:22:42.744Z,101781.63
2023-01-26T00:25:45.891Z,101772.19
2023-01-26T00:28:49.466Z,101762.69
2023-01-26T00:31:52.568Z,101762.78
2023-01-26T00:34:57.933Z,101752.53
2023-01-26T00:38:02.267Z,101752.63
2023-01-26T00:41:05.793Z,101755.22
2023-01-26T00:44:09.179Z,101751.81
2023-01-26T00:47:14.656Z,101755.19
2023-01-26T00:50:18.165Z,101751.88
2023-01-26T00:53:22.533Z,101758.00
2023-01-26T00:56:28.032Z,101753.66
2023-01-26T00:59:32.565Z,101754.47
2023-01-26T01:02:35.708Z,101756.19
2023-01-26T01:05:38.800Z,101757.03
2023-01-26T01:08:43.193Z,101757.00
2023-01-26T01:11:46.762Z,101752.75
2023-01-26T01:14:51.078Z,101751.13
2023-01-26T01:17:54.180Z,101745.16
2023-01-26T01:20:57.464Z,101747.66
2023-01-26T01:24:02.566Z,101737.34
2023-01-26T01:27:05.745Z,101739.94
2023-01-26T01:30:11.742Z,101736.63
2023-01-26T01:33:14.814Z,101733.13
2023-01-26T01:36:18.756Z,101727.94
2023-01-26T01:39:23.780Z,101729.69
2023-01-26T01:42:28.076Z,101727.03
2023-01-26T01:45:45.644Z,101726.19
2023-01-26T01:48:54.687Z,101725.56
2023-01-26T01:52:03.508Z,101710.94
2023-01-26T01:55:13.845Z,101715.34
2023-01-26T01:58:16.948Z,101709.38
2023-01-26T02:01:22.000Z,101705.88
2023-01-26T02:04:28.645Z,101706.72
2023-01-26T02:07:33.218Z,101707.59
2023-01-26T02:10:44.178Z,101700.66
2023-01-26T02:13:49.856Z,101698.06
2023-01-26T02:16:52.924Z,101684.38
2023-01-26T02:20:05.618Z,101686.91
2023-01-26T02:23:22.766Z,101687.66
2023-01-26T02:26:29.648Z,101678.25
2023-01-26T02:29:33.571Z,101665.41
2023-01-26T02:32:36.655Z,101668.03
2023-01-26T02:35:42.375Z,101662.97
2023-01-26T02:38:52.310Z,101660.44
2023-01-26T02:42:14.623Z,101653.78
2023-01-26T02:45:18.899Z,101652.81
2023-01-26T02:48:38.093Z,101647.75
2023-01-26T02:51:41.123Z,101646.13
2023-01-26T02:55:03.718Z,101655.44
2023-01-26T02:58:08.131Z,101653.75
2023-01-26T03:01:13.811Z,101652.09
2023-01-26T03:04:23.951Z,101655.44
2023-01-26T03:07:27.427Z,101650.28
2023-01-26T03:10:30.939Z,101645.06
2023-01-26T03:13:35.629Z,101650.16
2023-01-26T03:16:39.468Z,101653.66
2023-01-26T03:19:59.920Z,101646.84
2023-01-26T03:23:19.525Z,101655.38
2023-01-26T03:26:40.259Z,101650.19
2023-01-26T03:29:45.667Z,101644.09
2023-01-26T03:32:48.893Z,101634.91
2023-01-26T03:35:55.580Z,101640.00
2023-01-26T03:39:00.390Z,101633.94
2023-01-26T03:42:23.983Z,101627.97
2023-01-26T03:45:46.833Z,101628.06
2023-01-26T03:49:07.521Z,101636.63
2023-01-26T03:52:28.514Z,101635.69
2023-01-26T03:55:49.677Z,101640.88
2023-01-26T03:58:54.993Z,101640.03
2023-01-26T04:02:18.627Z,101642.63
2023-01-26T04:05:39.637Z,101646.00
2023-01-26T04:08:42.842Z,101633.25
2023-01-26T04:11:47.146Z,101631.56
2023-01-26T04:15:07.779Z,101633.34
2023-01-26T04:18:29.777Z,101628.13
2023-01-26T04:21:35.992Z,101622.16
2023-01-26T04:24:46.776Z,101616.34
2023-01-26T04:27:49.925Z,101614.66
2023-01-26T04:30:53.325Z,101609.50
2023-01-26T04:33:59.081Z,101606.88
2023-01-26T04:37:02.181Z,101604.31
2023-01-26T04:40:20.905Z,101609.34
2023-01-26T04:43:25.137Z,101609.28
2023-01-26T04:46:28.445Z,101604.09
2023-01-26T04:49:33.159Z,101598.97
2023-01-26T04:52:36.157Z,101592.06
2023-01-26T04:55:39.378Z,101588.75
2023-01-26T04:58:42.440Z,101587.78
2023-01-26T05:01:45.653Z,101585.28
2023-01-26T05:04:50.250Z,101578.56
2023-01-26T05:07:53.500Z,101582.81
2023-01-26T05:10:57.641Z,101581.13
2023-01-26T05:14:24.215Z,101590.66
2023-01-26T05:17:47.456Z,101586.41
2023-01-26T05:21:15.027Z,101587.31
2023-01-26T05:24:23.054Z,101589.88
2023-01-26T05:27:36.394Z,101587.22
2023-01-26T05:30:40.184Z,101596.63
2023-01-26T05:33:43.786Z,101595.81
2023-01-26T05:36:51.096Z,101595.75
2023-01-26T05:39:55.039Z,101588.91
2023-01-26T05:42:58.147Z,101584.53
2023-01-26T05:46:24.163Z,101595.63
2023-01-26T05:49:27.746Z,101599.88
2023-01-26T05:52:33.028Z,101603.25
2023-01-26T05:55:36.341Z,101592.09
2023-01-26T05:58:39.595Z,101598.91
2023-01-26T06:01:42.889Z,101590.31
2023-01-26T06:04:48.638Z,101590.41
2023-01-26T06:07:53.653Z,101586.13
2023-01-26T06:11:04.420Z,101594.59
2023-01-26T06:14:33.530Z,101594.53
2023-01-26T06:17:36.602Z,101601.44
2023-01-26T06:20:44.155Z,101606.50
2023-01-26T06:23:49.029Z,101604.78
2023-01-26T06:26:52.437Z,101609.28
2023-01-26T06:29:55.844Z,101610.13
2023-01-26T06:33:00.318Z,101610.97
2023-01-26T06:36:04.234Z,101605.81
2023-01-26T06:39:13.907Z,101615.34
2023-01-26T06:42:17.012Z,101617.06
2023-01-26T06:45:20.782Z,101615.38
2023-01-26T06:48:25.791Z,101612.03
2023-01-26T06:51:47.545Z,101612.94
2023-01-26T06:54:53.404Z,101614.66
2023-01-26T06:58:17.024Z,101619.66
2023-01-26T07:01:45.328Z,101613.81
2023-01-26T07:04:52.071Z,101612.19
2023-01-26T07:07:55.426Z,101614.69
2023-01-26T07:10:59.789Z,101608.72
2023-01-26T07:14:05.389Z,101606.13
2023-01-26T07:17:10.146Z,101614.75
2023-01-26T07:20:15.362Z,101623.22
2023-01-26T07:23:18.532Z,101616.41
2023-01-26T07:26:23.124Z,101612.09
2023-01-26T07:29:26.398Z,101612.09
2023-01-26T07:32:29.765Z,101618.94
2023-01-26T07:35:32.915Z,101618.13
2023-01-26T07:38:36.256Z,101621.47
2023-01-26T07:41:40.851Z,101622.28
2023-01-26T07:45:16.430Z,101618.06
2023-01-26T07:48:30.120Z,101612.97
2023-01-26T07:51:33.136Z,101618.13
2023-01-26T07:54:36.301Z,101616.50
2023-01-26T07:57:40.806Z,101609.66
2023-01-26T08:00:47.068Z,101624.25
2023-01-26T08:03:53.607Z,101627.69
2023-01-26T08:06:56.732Z,101624.47
2023-01-26T08:10:00.044Z,101629.44
2023-01-26T08:13:04.979Z,101633.75
2023-01-26T08:16:11.986Z,101638.09
2023-01-26T08:19:15.193Z,101636.41
2023-01-26T08:22:18.334Z,101629.47
2023-01-26T08:25:21.428Z,101630.41
2023-01-26T08:28:25.751Z,101636.34
2023-01-26T08:31:28.826Z,101638.88
2023-01-26T08:34:48.177Z,101633.66
2023-01-26T08:37:51.204Z,101616.75
2023-01-26T08:40:54.656Z,101627.91
2023-01-26T08:43:59.289Z,101625.31
2023-01-26T08:47:04.619Z,101628.69
2023-01-26T08:50:08.819Z,101632.16
2023-01-26T08:53:12.830Z,101627.00
2023-01-26T08:56:15.970Z,101628.78
2023-01-26T08:59:20.338Z,101633.06
2023-01-26T09:02:23.399Z,101633.00
2023-01-26T09:05:26.891Z,101636.41
2023-01-26T09:08:30.024Z,101642.44
2023-01-26T09:11:33.321Z,101637.34
2023-01-26T09:14:37.679Z,101643.25
2023-01-26T09:17:42.371Z,101644.88
2023-01-26T09:20:45.848Z,101644.94
2023-01-26T09:23:49.186Z,101650.13
2023-01-26T09:26:52.859Z,101661.13
2023-01-26T09:29:57.631Z,101657.69
2023-01-26T09:33:04.883Z,101657.84
2023-01-26T09:36:11.528Z,101650.16
2023-01-26T09:39:14.625Z,101658.69
2023-01-26T09:42:33.954Z,101655.28
2023-01-26T09:45:47.710Z,101661.22
2023-01-26T09:49:02.312Z,101651.06
2023-01-26T09:52:17.834Z,101653.63
2023-01-26T09:55:23.009Z,101651.91
2023-01-26T09:58:35.655Z,101654.53
2023-01-26T10:01:46.439Z,101649.47
2023-01-26T10:04:57.566Z,101644.28
2023-01-26T10:08:00.712Z,101644.19
2023-01-26T10:11:13.824Z,101641.69
2023-01-26T10:14:22.068Z,101644.22
2023-01-26T10:17:32.684Z,101640.84
2023-01-26T10:20:39.785Z,101634.81
2023-01-26T10:23:49.345Z,101624.47
2023-01-26T10:26:58.138Z,101625.44
2023-01-26T10:30:01.217Z,101632.22
2023-01-26T10:33:15.193Z,101627.00
2023-01-26T10:36:21.832Z,101618.50
2023-01-26T10:39:24.853Z,101617.72
2023-01-26T10:42:31.024Z,101617.81
2023-01-26T10:45:35.016Z,101612.69
2023-01-26T10:48:39.433Z,101598.16
2023-01-26T10:51:46.111Z,101599.00
2023-01-26T10:54:49.472Z,101591.31
2023-01-26T10:57:52.535Z,101591.31
2023-01-26T11:00:57.848Z,101584.63
2023-01-26T11:04:07.641Z,101581.16
2023-01-26T11:07:28.097Z,101584.53
2023-01-26T11:10:34.960Z,101592.09
2023-01-26T11:13:38.472Z,101596.41
2023-01-26T11:16:46.295Z,101593.81
2023-01-26T11:20:08.715Z,101586.16
2023-01-26T11:23:22.211Z,101588.69
2023-01-26T11:26:47.995Z,101577.59
2023-01-26T11:30:20.717Z,101579.34
2023-01-26T11:33:31.401Z,101571.59
2023-01-26T11:36:49.102Z,101568.88
2023-01-26T11:40:04.847Z,101565.50
2023-01-26T11:43:33.707Z,101561.16
2023-01-26T11:46:54.743Z,101563.81
2023-01-26T11:50:19.750Z,101560.44
2023-01-26T11:53:56.700Z,101546.63
2023-01-26T11:57:10.865Z,101543.44
2023-01-26T12:00:29.445Z,101546.84
2023-01-26T12:03:41.252Z,101538.34
2023-01-26T12:06:48.809Z,101530.66
2023-01-26T12:10:17.396Z,101540.09
2023-01-26T12:13:32.124Z,101538.28
2023-01-26T12:16:51.607Z,101528.84
2023-01-26T12:20:05.710Z,101520.31
2023-01-26T12:23:18.598Z,101507.44
2023-01-26T12:26:27.050Z,101503.22
2023-01-26T12:29:38.503Z,101506.78
2023-01-26T12:32:42.129Z,101505.88
2023-01-26T12:36:00.391Z,101499.84
2023-01-26T12:39:14.831Z,101499.78
2023-01-26T12:42:43.684Z,101493.88
2023-01-26T12:45:50.810Z,101485.34
2023-01-26T12:48:58.947Z,101498.13
2023-01-26T12:52:11.499Z,101496.47
2023-01-26T12:55:21.431Z,101487.94
2023-01-26T12:58:32.493Z,101486.91
2023-01-26T13:01:41.223Z,101486.06
2023-01-26T13:04:47.831Z,101495.59
2023-01-26T13:07:52.566Z,101505.81
2023-01-26T13:10:55.691Z,101517.75
2023-01-26T13:14:00.630Z,101507.44
2023-01-26T13:17:52.402Z,101522.81
2023-01-26T13:20:58.400Z,101512.53
2023-01-26T13:24:01.672Z,101519.53
2023-01-26T13:27:31.392Z,101516.31
2023-01-26T13:30:46.357Z,101520.44
2023-01-26T13:33:53.304Z,101524.63
2023-01-26T13:37:02.975Z,101526.22
2023-01-26T13:40:15.710Z,101533.00
2023-01-26T13:43:38.146Z,101533.84
2023-01-26T13:46:46.416Z,101538.22
2023-01-26T13:49:50.560Z,101544.91
2023-01-26T13:52:56.795Z,101545.09
2023-01-26T13:56:05.230Z,101538.22
2023-01-26T13:59:12.835Z,101550.13
2023-01-26T14:02:28.322Z,101552.72
2023-01-26T14:05:32.726Z,101550.06
2023-01-26T14:08:37.675Z,101537.94
2023-01-26T14:11:40.878Z,101553.41
2023-01-26T14:14:49.187Z,101544.94
2023-01-26T14:17:58.652Z,101544.97
2023-01-26T14:21:05.028Z,101542.28
2023-01-26T14:24:11.004Z,101543.13
2023-01-26T14:27:32.909Z,101542.22
2023-01-26T14:30:36.763Z,101552.63
2023-01-26T14:33:41.074Z,101554.31
2023-01-26T14:36:44.151Z,101550.09
2023-01-26T14:39:50.076Z,101543.31
2023-01-26T14:42:54.723Z,101556.09
2023-01-26T14:46:02.780Z,101550.06
2023-01-26T14:49:26.427Z,101550.03
2023-01-26T14:52:39.364Z,101553.44
2023-01-26T14:55:45.681Z,101557.75
2023-01-26T14:58:52.899Z,101560.38
2023-01-26T15:02:10.878Z,101557.88
2023-01-26T15:05:20.600Z,101554.47
2023-01-26T15:08:25.816Z,101551.91
2023-01-26T15:11:52.156Z,101559.50
2023-01-26T15:14:59.912Z,101553.50
2023-01-26T15:18:07.949Z,101555.25
2023-01-26T15:21:20.577Z,101564.69
2023-01-26T15:27:58.626Z,101569.91
2023-01-26T15:31:02.629Z,101570.75
2023-01-26T15:34:36.733Z,101574.06
2023-01-26T15:37:41.028Z,101568.09
2023-01-26T15:40:44.303Z,101570.69
2023-01-26T15:43:47.861Z,101569.81
2023-01-26T15:46:51.124Z,101566.34
2023-01-26T15:49:54.538Z,101568.25
2023-01-26T15:52:58.914Z,101565.69
2023-01-26T15:56:01.828Z,101574.13
2023-01-26T15:59:04.839Z,101572.50
2023-01-26T16:02:14.179Z,101575.13
2023-01-26T16:05:20.618Z,101565.81
2023-01-26T16:08:25.184Z,101567.47
2023-01-26T16:11:32.742Z,101570.09
2023-01-26T16:14:35.754Z,101566.63
2023-01-26T16:17:38.939Z,101564.06
2023-01-26T16:20:44.155Z,101570.97
2023-01-26T16:23:48.959Z,101564.13
2023-01-26T16:26:51.953Z,101568.47
2023-01-26T16:29:55.053Z,101560.75
2023-01-26T16:32:58.091Z,101558.91
2023-01-26T16:36:01.094Z,101564.91
2023-01-26T16:39:06.711Z,101553.88
2023-01-26T16:42:12.019Z,101546.19
2023-01-26T16:45:20.178Z,101546.22
2023-01-26T16:48:23.812Z,101540.97
2023-01-26T16:51:30.075Z,101541.81
2023-01-26T16:54:34.827Z,101544.56
2023-01-26T16:57:38.319Z,101550.53
2023-01-26T17:00:42.041Z,101545.41
2023-01-26T17:03:45.425Z,101547.97
2023-01-26T17:06:48.530Z,101553.13
2023-01-26T17:09:52.902Z,101553.13
2023-01-26T17:12:56.260Z,101556.44
2023-01-26T17:15:59.795Z,101553.97
2023-01-26T17:19:03.654Z,101548.78
2023-01-26T17:22:07.700Z,101553.94
2023-01-26T17:25:15.988Z,101541.97
2023-01-26T17:28:19.637Z,101543.69
2023-01-26T17:31:26.622Z,101541.84
2023-01-26T17:34:29.790Z,101552.19
2023-01-26T17:37:37.567Z,101543.66
2023-01-26T17:40:44.655Z,101548.78
2023-01-26T17:43:51.629Z,101554.78
2023-01-26T17:46:59.694Z,101557.25
2023-01-26T17:50:03.448Z,101562.47
2023-01-26T17:53:06.754Z,101567.47
2023-01-26T17:56:14.296Z,101568.31
2023-01-26T17:59:17.651Z,101572.53
2023-01-26T18:02:22.242Z,101574.22
2023-01-26T18:05:25.412Z,101584.56
2023-01-26T18:08:29.274Z,101588.84
2023-01-26T18:11:33.745Z,101593.06
2023-01-26T18:14:36.823Z,101593.06
2023-01-26T18:17:40.468Z,101590.47
2023-01-26T18:20:43.557Z,101585.38
2023-01-26T18:23:47.635Z,101581.91
2023-01-26T18:26:52.377Z,101589.50
2023-01-26T18:29:57.178Z,101591.25
2023-01-26T18:33:00.290Z,101587.88
2023-01-26T18:36:06.245Z,101591.28
2023-01-26T18:39:14.305Z,101595.53
2023-01-26T18:42:21.241Z,101594.66
2023-01-26T18:45:24.574Z,101594.81
2023-01-26T18:48:27.559Z,101588.81
2023-01-26T18:51:32.884Z,101589.63
2023-01-26T18:54:35.923Z,101586.19
2023-01-26T18:57:40.424Z,101594.81
2023-01-26T19:00:43.432Z,101593.94
2023-01-26T19:03:47.566Z,101594.72
2023-01-26T19:06:50.822Z,101594.75
2023-01-26T19:09:53.899Z,101595.59
2023-01-26T19:12:58.223Z,101597.34
2023-01-26T19:16:01.552Z,101603.28
2023-01-26T19:19:06.020Z,101612.66
2023-01-26T19:22:11.021Z,101608.34
2023-01-26T19:25:14.132Z,101600.72
2023-01-26T19:28:18.794Z,101598.97
2023-01-26T19:31:23.185Z,101600.72
2023-01-26T19:34:28.236Z,101599.00
2023-01-26T19:37:31.270Z,101594.75
2023-01-26T19:40:35.100Z,101593.88
2023-01-26T19:43:39.482Z,101586.25
2023-01-26T19:46:42.463Z,101588.81
2023-01-26T19:49:45.553Z,101591.28
2023-01-26T19:52:48.574Z,101599.78
2023-01-26T19:55:51.652Z,101591.22
2023-01-26T19:58:58.070Z,101595.50
2023-01-26T20:02:01.113Z,101587.84
2023-01-26T20:05:05.187Z,101586.97
2023-01-26T20:08:08.218Z,101591.22
2023-01-26T20:11:11.743Z,101584.28
2023-01-26T20:14:16.207Z,101588.59
2023-01-26T20:17:19.475Z,101584.38
2023-01-26T20:20:22.653Z,101590.22
2023-01-26T20:23:25.764Z,101583.34
2023-01-26T20:26:29.037Z,101580.84
2023-01-26T20:29:33.575Z,101580.88
2023-01-26T20:32:39.115Z,101580.03
2023-01-26T20:35:43.612Z,101584.31
2023-01-26T20:38:48.407Z,101589.41
2023-01-26T20:41:52.225Z,101586.91
2023-01-26T20:44:58.819Z,101585.09
2023-01-26T20:48:01.900Z,101585.13
2023-01-26T20:51:11.410Z,101590.22
2023-01-26T20:54:17.612Z,101586.78
2023-01-26T20:57:23.260Z,101580.03
2023-01-26T21:00:28.222Z,101579.09
2023-01-26T21:03:31.320Z,101585.09
2023-01-26T21:06:35.091Z,101587.63
2023-01-26T21:09:38.200Z,101582.59
2023-01-26T21:12:41.312Z,101580.03
2023-01-26T21:15:45.793Z,101580.91
2023-01-26T21:18:49.629Z,101580.88
2023-01-26T21:21:52.592Z,101582.59
2023-01-26T21:24:58.595Z,101575.66
2023-01-26T21:28:01.795Z,101573.13
2023-01-26T21:31:08.907Z,101573.06
2023-01-26T21:34:14.778Z,101567.94
2023-01-26T21:37:17.742Z,101567.09
2023-01-26T21:40:20.860Z,101567.16
2023-01-26T21:43:23.987Z,101562.03
2023-01-26T21:46:29.870Z,101551.72
2023-01-26T21:49:32.972Z,101555.13
2023-01-26T21:52:53.689Z,101554.28
2023-01-26T21:55:56.713Z,101561.03
2023-01-26T21:59:02.712Z,101559.34
2023-01-26T22:02:07.298Z,101566.22
2023-01-26T22:05:10.683Z,101573.09
2023-01-26T22:08:13.700Z,101572.19
2023-01-26T22:11:16.840Z,101581.59
2023-01-26T22:14:22.073Z,101574.72
2023-01-26T22:17:26.356Z,101572.94
2023-01-26T22:20:29.726Z,101579.78
2023-01-26T22:23:35.226Z,101577.22
2023-01-26T22:26:40.750Z,101578.91
2023-01-26T22:29:43.900Z,101581.47
2023-01-26T22:32:49.440Z,101582.28
2023-01-26T22:36:01.242Z,101584.81
2023-01-26T22:39:04.914Z,101584.03
2023-01-26T22:42:08.273Z,101588.28
2023-01-26T22:45:12.903Z,101582.28
2023-01-26T22:48:17.730Z,101580.72
2023-01-26T22:51:23.864Z,101584.09
2023-01-26T22:54:27.790Z,101578.94
2023-01-26T22:57:30.764Z,101579.81
2023-01-26T23:00:35.237Z,101578.03
2023-01-26T23:03:41.095Z,101578.06
2023-01-26T23:06:44.352Z,101578.03
2023-01-26T23:09:47.272Z,101575.50
2023-01-26T23:12:54.633Z,101569.47
2023-01-26T23:15:57.750Z,101567.00
2023-01-26T23:19:02.084Z,101563.50
2023-01-26T23:22:05.561Z,101561.91
2023-01-26T23:25:27.846Z,101561.00
2023-01-26T23:28:34.602Z,101565.25
2023-01-26T23:31:37.625Z,101571.16
2023-01-26T23:34:42.050Z,101575.47
2023-01-26T23:37:45.060Z,101566.81
2023-01-26T23:40:50.339Z,101569.47
2023-01-26T23:43:53.324Z,101566.91
2023-01-26T23:46:56.491Z,101571.94
2023-01-26T23:50:00.810Z,101569.44
2023-01-26T23:53:03.792Z,101572.84
2023-01-26T23:56:10.180Z,101568.66
2023-01-26T23:59:13.138Z,101573.78
